Página principal
METAR-TAF:

METAR-TAF

Aeroportos :

Porto Santo, Portugal

Aeroporto do Porto Santo

latitude: 33-04N, longitude: 016-21W, altura: 97 m

Observação actual do tempo

O boletim foi feito há 28 minutos, às 20:30 UTC
Vento 11 kt de nor-nordeste
Temperatura 22°C
Humidade 78%
Pressão 1020 hPa
Visibilidade 10 km ou mais
Nuvens fragmentadasa uma altura de 1500 ft

METAR: LPPS 172030Z 02011KT 9999 BKN015 22/18 Q1020

Hora: 21:58 (20:58 UTC)

Previsão

O boletim foi feito há 3 horas e 58 minutos, às 17:00 UTC
Previsão válida de 17 às 18 UTC a 18 às 24 UTC
Vento 12 kt de nor-nordeste
Visibilidade 10 km ou mais
Nuvens dispersasa uma altura de 1500 ft
Temporariamente
de 17 às 18 UTC a 18 às 24 UTC
Nuvens fragmentadasa uma altura de 1500 ft
Tornando-se
de 18 às 12 UTC a 18 às 15 UTC
Vento 12 kt de norte

TAF: LPPS 171700Z 1718/1824 03012KT 9999 SCT015 TEMPO 1718/1824 BKN015 BECMG 1812/1815 36012KT

Observações e previsões do tempo de mais de 4000 aeroportos (mensagens METAR e TAF).

As estações disponíveis são os pontos amarelos e vermelhos sobre o mapa.

Mova o rato sobre o mapa para ver o nome da estação.

Depois clique no ponto para visualizar as observações e previsões meteorológicas.

Para alterar o mapa : clique nos botões verdes com uma cruz preta para aumentar o zoom; no botão verde com uma pitada de zoom; ou nas setas verdes para mapas adjacentes.


METAR-TAF: